CheckWX is a tool to help pilots better visualize weather data.  It is not intended as a substitute for an official pre-flight weather briefing.

18:49:24 UTC

LFPV METAR
Villacoublay-Vélizy (BA 107) Air Base Airport
Villacoublay/Vélizy, France
Current

49 mins ago

LFPV 271800Z AUTO 21011KT 170V250 9999 BKN009/// BKN014/// OVC021/// ///TCU 08/07 Q1001 TEMPO 22015G25KT 3000 SHRA BKN008 BKN012CB
Observed
Jan-27 @ 18:00 UTC
Wind
  • 210° at 11 KTS
Visibility
10,000+ meters
Flight Rules
IFR
Cloud Levels
  • Broken at 900' AGL
  • Broken at 1,400' AGL
  • Overcast at 2,100' AGL
Temperature
C / 46°F
Dewpoint
C / 45°F
Humidity
93%
Altimeter
29.56" Hg
Pressure
1000.92 hPa
Previous

1 hour ago

LFPV 271730Z AUTO 21013KT 160V260 9999 -RA BKN010/// OVC018/// ///TCU 08/07 Q1001 TEMPO 22015G25KT 3000 SHRA BKN008 BKN012CB
Observed
Jan-27 @ 17:30 UTC
Wind
  • 210° at 13 KTS
Visibility
10,000+ meters
Flight Rules
MVFR
Conditions
Light Rain
Cloud Levels
  • Broken at 1,000' AGL
  • Overcast at 1,800' AGL
Temperature
C / 46°F
Dewpoint
C / 45°F
Humidity
93%
Altimeter
29.56" Hg
Pressure
1000.92 hPa
Previous

2 hours ago

LFPV 271700Z AUTO 21012KT 160V230 9999 -DZ OVC010/// ///TCU 08/07 Q1001 TEMPO 22015G25KT 3000 SHRA BKN008 BKN012CB
Observed
Jan-27 @ 17:00 UTC
Wind
  • 210° at 12 KTS
Visibility
10,000+ meters
Flight Rules
MVFR
Conditions
Light Drizzle
Cloud Levels
  • Overcast at 1,000' AGL
Temperature
C / 46°F
Dewpoint
C / 45°F
Humidity
93%
Altimeter
29.56" Hg
Pressure
1000.92 hPa